createdAt,value
2018-08-30T00:00:54.825Z,1005.12
2018-08-30T00:01:54.804Z,1005.12
2018-08-30T00:02:54.793Z,1005.10
2018-08-30T00:03:54.780Z,1005.05
2018-08-30T00:04:54.771Z,1005.13
2018-08-30T00:05:54.771Z,1005.13
2018-08-30T00:06:54.747Z,1005.09
2018-08-30T00:07:54.736Z,1005.11
2018-08-30T00:08:54.749Z,1005.14
2018-08-30T00:09:54.713Z,1005.15
2018-08-30T00:10:54.714Z,1005.14
2018-08-30T00:11:54.693Z,1005.19
2018-08-30T00:12:54.681Z,1005.16
2018-08-30T00:13:54.669Z,1005.18
2018-08-30T00:14:54.658Z,1005.23
2018-08-30T00:15:54.661Z,1005.19
2018-08-30T00:16:54.634Z,1005.19
2018-08-30T00:17:54.622Z,1005.21
2018-08-30T00:18:54.611Z,1005.22
2018-08-30T00:19:54.609Z,1005.25
2018-08-30T00:20:54.600Z,1005.23
2018-08-30T00:21:54.590Z,1005.25
2018-08-30T00:22:54.568Z,1005.26
2018-08-30T00:23:54.553Z,1005.23
2018-08-30T00:24:54.545Z,1005.23
2018-08-30T00:25:54.544Z,1005.23
2018-08-30T00:26:54.523Z,1005.22
2018-08-30T00:27:54.513Z,1005.26
2018-08-30T00:28:54.495Z,1005.25
2018-08-30T00:29:54.491Z,1005.27
2018-08-30T00:30:54.499Z,1005.23
2018-08-30T00:31:54.487Z,1005.27
2018-08-30T00:32:54.450Z,1005.31
2018-08-30T00:33:54.438Z,1005.33
2018-08-30T00:34:54.427Z,1005.30
2018-08-30T00:35:54.420Z,1005.34
2018-08-30T00:36:54.421Z,1005.39
2018-08-30T00:37:54.396Z,1005.37
2018-08-30T00:38:54.388Z,1005.32
2018-08-30T00:39:54.372Z,1005.40
2018-08-30T00:40:54.357Z,1005.39
2018-08-30T00:41:54.364Z,1005.37
2018-08-30T00:42:54.342Z,1005.37
2018-08-30T00:43:54.326Z,1005.35
2018-08-30T00:44:54.335Z,1005.31
2018-08-30T00:45:54.302Z,1005.34
2018-08-30T00:46:54.302Z,1005.37
2018-08-30T00:47:54.287Z,1005.39
2018-08-30T00:48:54.273Z,1005.39
2018-08-30T00:49:54.304Z,1005.39
2018-08-30T00:50:54.247Z,1005.34
2018-08-30T00:51:54.248Z,1005.42
2018-08-30T00:52:54.231Z,1005.46
2018-08-30T00:53:54.213Z,1005.47
2018-08-30T00:54:54.224Z,1005.49
2018-08-30T00:55:54.205Z,1005.52
2018-08-30T00:56:54.192Z,1005.59
2018-08-30T00:57:54.169Z,1005.60
2018-08-30T00:58:54.161Z,1005.59
2018-08-30T00:59:54.169Z,1005.61
2018-08-30T01:00:54.133Z,1005.62
2018-08-30T01:01:54.138Z,1005.62
2018-08-30T01:02:54.113Z,1005.57
2018-08-30T01:03:54.109Z,1005.63
2018-08-30T01:04:54.091Z,1005.64
2018-08-30T01:05:54.081Z,1005.67
2018-08-30T01:06:54.080Z,1005.66
2018-08-30T01:07:54.074Z,1005.63
2018-08-30T01:08:54.044Z,1005.71
2018-08-30T01:09:54.034Z,1005.74
2018-08-30T01:10:54.022Z,1005.72
2018-08-30T01:11:54.031Z,1005.72
2018-08-30T01:12:54.001Z,1005.74
2018-08-30T01:13:53.992Z,1005.76
2018-08-30T01:14:53.978Z,1005.78
2018-08-30T01:15:53.979Z,1005.80
2018-08-30T01:16:53.985Z,1005.78
2018-08-30T01:17:53.976Z,1005.83
2018-08-30T01:18:53.936Z,1005.82
2018-08-30T01:19:53.969Z,1005.78
2018-08-30T01:20:53.908Z,1005.81
2018-08-30T01:21:53.897Z,1005.87
2018-08-30T01:22:53.913Z,1005.90
2018-08-30T01:23:53.898Z,1005.91
2018-08-30T01:24:53.864Z,1005.92
2018-08-30T01:25:53.857Z,1005.93
2018-08-30T01:26:53.843Z,1005.93
2018-08-30T01:27:53.842Z,1005.99
2018-08-30T01:28:53.834Z,1005.92
2018-08-30T01:29:53.808Z,1005.96
2018-08-30T01:30:53.810Z,1005.99
2018-08-30T01:31:53.787Z,1005.93
2018-08-30T01:32:53.784Z,1005.98
2018-08-30T01:33:53.775Z,1005.97
2018-08-30T01:34:53.751Z,1005.95
2018-08-30T01:35:53.742Z,1005.96
2018-08-30T01:36:53.730Z,1005.98
2018-08-30T01:37:53.730Z,1006.00
2018-08-30T01:38:53.715Z,1006.06
2018-08-30T01:39:53.700Z,1006.06
2018-08-30T01:40:53.692Z,1006.07
2018-08-30T01:41:53.674Z,1006.07
2018-08-30T01:42:53.677Z,1006.13
2018-08-30T01:43:53.657Z,1006.14
2018-08-30T01:44:53.639Z,1006.13
2018-08-30T01:45:53.645Z,1006.12
2018-08-30T01:46:53.620Z,1006.13
2018-08-30T01:47:53.616Z,1006.17
2018-08-30T01:48:53.601Z,1006.14
2018-08-30T01:49:53.580Z,1006.18
2018-08-30T01:50:53.571Z,1006.21
2018-08-30T01:51:53.574Z,1006.24
2018-08-30T01:52:53.557Z,1006.24
2018-08-30T01:53:53.554Z,1006.24
2018-08-30T01:54:53.525Z,1006.24
2018-08-30T01:55:53.514Z,1006.28
2018-08-30T01:56:53.506Z,1006.28
2018-08-30T01:57:53.500Z,1006.29
2018-08-30T01:58:53.478Z,1006.32
2018-08-30T01:59:53.469Z,1006.33
2018-08-30T02:00:53.459Z,1006.32
2018-08-30T02:01:53.445Z,1006.36
2018-08-30T02:02:53.459Z,1006.37
2018-08-30T02:03:53.429Z,1006.41
2018-08-30T02:04:53.416Z,1006.42
2018-08-30T02:05:53.409Z,1006.44
2018-08-30T02:06:53.396Z,1006.50
2018-08-30T02:07:53.383Z,1006.52
2018-08-30T02:08:53.377Z,1006.53
2018-08-30T02:09:53.355Z,1006.53
2018-08-30T02:10:53.345Z,1006.53
2018-08-30T02:11:53.344Z,1006.54
2018-08-30T02:12:53.325Z,1006.56
2018-08-30T02:13:53.329Z,1006.57
2018-08-30T02:14:53.299Z,1006.59
2018-08-30T02:15:53.302Z,1006.58
2018-08-30T02:16:53.298Z,1006.58
2018-08-30T02:17:53.264Z,1006.62
2018-08-30T02:18:53.267Z,1006.67
2018-08-30T02:19:53.248Z,1006.64
2018-08-30T02:20:53.230Z,1006.66
2018-08-30T02:21:53.220Z,1006.67
2018-08-30T02:22:53.209Z,1006.66
2018-08-30T02:23:53.207Z,1006.69
2018-08-30T02:24:53.188Z,1006.63
2018-08-30T02:25:53.197Z,1006.70
2018-08-30T02:26:53.166Z,1006.69
2018-08-30T02:27:53.173Z,1006.73
2018-08-30T02:28:53.172Z,1006.71
2018-08-30T02:29:53.151Z,1006.72
2018-08-30T02:30:53.131Z,1006.71
2018-08-30T02:31:53.115Z,1006.73
2018-08-30T02:32:53.101Z,1006.75
2018-08-30T02:33:53.095Z,1006.75
2018-08-30T02:34:53.078Z,1006.79
2018-08-30T02:35:53.062Z,1006.78
2018-08-30T02:36:53.051Z,1006.79
2018-08-30T02:37:53.042Z,1006.76
2018-08-30T02:38:53.045Z,1006.84
2018-08-30T02:39:53.041Z,1006.82
2018-08-30T02:40:53.008Z,1006.82
2018-08-30T02:41:52.998Z,1006.81
2018-08-30T02:42:52.986Z,1006.81
2018-08-30T02:43:52.984Z,1006.83
2018-08-30T02:44:52.960Z,1006.85
2018-08-30T02:45:52.962Z,1006.82
2018-08-30T02:46:52.939Z,1006.83
2018-08-30T02:47:52.926Z,1006.88
2018-08-30T02:48:52.957Z,1006.94
2018-08-30T02:49:52.908Z,1006.91
2018-08-30T02:50:52.894Z,1006.85
2018-08-30T02:51:52.893Z,1006.87
2018-08-30T02:52:52.890Z,1006.94
2018-08-30T02:53:52.892Z,1006.90
2018-08-30T02:54:52.849Z,1006.93
2018-08-30T02:55:52.840Z,1006.89
2018-08-30T02:56:52.825Z,1006.91
2018-08-30T02:57:52.818Z,1006.92
2018-08-30T02:58:52.816Z,1006.88
2018-08-30T02:59:52.805Z,1006.91
2018-08-30T03:00:52.781Z,1006.93
2018-08-30T03:01:52.774Z,1006.92
2018-08-30T03:02:52.759Z,1006.95
2018-08-30T03:03:52.748Z,1006.96
2018-08-30T03:04:52.750Z,1006.97
2018-08-30T03:05:52.734Z,1006.96
2018-08-30T03:06:52.715Z,1007.00
2018-08-30T03:07:52.705Z,1006.95
2018-08-30T03:08:52.693Z,1007.02
2018-08-30T03:09:52.693Z,1007.01
2018-08-30T03:10:52.672Z,1007.02
2018-08-30T03:11:52.666Z,1007.02
2018-08-30T03:12:52.651Z,1007.01
2018-08-30T03:13:52.640Z,1007.06
2018-08-30T03:14:52.681Z,1007.04
2018-08-30T03:15:52.640Z,1007.07
2018-08-30T03:16:52.606Z,1007.10
2018-08-30T03:17:52.594Z,1007.07
2018-08-30T03:18:52.582Z,1007.11
2018-08-30T03:19:52.615Z,1007.06
2018-08-30T03:20:52.562Z,1007.10
2018-08-30T03:21:52.565Z,1007.09
2018-08-30T03:22:52.544Z,1007.08
2018-08-30T03:23:52.534Z,1007.06
2018-08-30T03:24:52.528Z,1007.08
2018-08-30T03:25:52.508Z,1007.12
2018-08-30T03:26:52.502Z,1007.10
2018-08-30T03:27:52.489Z,1007.14
2018-08-30T03:28:52.475Z,1007.14
2018-08-30T03:29:52.474Z,1007.18
2018-08-30T03:30:52.499Z,1007.16
2018-08-30T03:31:52.440Z,1007.17
2018-08-30T03:32:52.432Z,1007.14
2018-08-30T03:33:52.418Z,1007.16
2018-08-30T03:34:52.417Z,1007.19
2018-08-30T03:35:52.401Z,1007.18
2018-08-30T03:36:52.386Z,1007.16
2018-08-30T03:37:52.371Z,1007.15
2018-08-30T03:38:52.410Z,1007.23
2018-08-30T03:39:52.360Z,1007.21
2018-08-30T03:40:52.339Z,1007.21
2018-08-30T03:41:52.328Z,1007.21
2018-08-30T03:42:52.316Z,1007.22
2018-08-30T03:43:52.315Z,1007.22
2018-08-30T03:44:52.305Z,1007.26
2018-08-30T03:45:52.285Z,1007.28
2018-08-30T03:46:52.322Z,1007.26
2018-08-30T03:47:52.272Z,1007.28
2018-08-30T03:48:52.248Z,1007.25
2018-08-30T03:49:52.254Z,1007.30
2018-08-30T03:50:52.228Z,1007.26
2018-08-30T03:51:52.220Z,1007.29
2018-08-30T03:52:52.206Z,1007.28
2018-08-30T03:53:52.195Z,1007.32
2018-08-30T03:54:52.197Z,1007.33
2018-08-30T03:55:52.175Z,1007.33
2018-08-30T03:56:52.171Z,1007.36
2018-08-30T03:57:52.147Z,1007.41
2018-08-30T03:58:52.168Z,1007.42
2018-08-30T03:59:52.166Z,1007.43
2018-08-30T04:00:52.115Z,1007.41
2018-08-30T04:01:52.109Z,1007.44
2018-08-30T04:02:52.094Z,1007.45
2018-08-30T04:03:52.093Z,1007.45
2018-08-30T04:04:52.086Z,1007.49
2018-08-30T04:05:52.061Z,1007.54
2018-08-30T04:06:52.060Z,1007.56
2018-08-30T04:07:52.037Z,1007.55
2018-08-30T04:08:52.027Z,1007.60
2018-08-30T04:09:52.056Z,1007.59
2018-08-30T04:10:52.020Z,1007.59
2018-08-30T04:11:52.005Z,1007.65
2018-08-30T04:12:51.983Z,1007.66
2018-08-30T04:13:51.976Z,1007.66
2018-08-30T04:14:51.985Z,1007.69
2018-08-30T04:15:51.950Z,1007.69
2018-08-30T04:16:51.937Z,1007.69
2018-08-30T04:17:51.933Z,1007.73
2018-08-30T04:18:51.914Z,1007.72
2018-08-30T04:19:51.903Z,1007.71
2018-08-30T04:20:51.924Z,1007.74
2018-08-30T04:21:51.907Z,1007.74
2018-08-30T04:22:51.871Z,1007.71
2018-08-30T04:23:51.866Z,1007.72
2018-08-30T04:24:51.848Z,1007.71
2018-08-30T04:25:51.847Z,1007.72
2018-08-30T04:26:51.831Z,1007.73
2018-08-30T04:27:51.816Z,1007.71
2018-08-30T04:28:51.805Z,1007.76
2018-08-30T04:29:51.796Z,1007.76
2018-08-30T04:30:51.809Z,1007.75
2018-08-30T04:31:51.779Z,1007.71
2018-08-30T04:32:51.763Z,1007.74
2018-08-30T04:33:51.768Z,1007.78
2018-08-30T04:34:51.740Z,1007.74
2018-08-30T04:35:51.755Z,1007.73
2018-08-30T04:36:51.720Z,1007.76
2018-08-30T04:37:51.707Z,1007.74
2018-08-30T04:38:51.697Z,1007.76
2018-08-30T04:39:51.686Z,1007.74
2018-08-30T04:40:51.736Z,1007.73
2018-08-30T04:41:51.664Z,1007.73
2018-08-30T04:42:51.726Z,1007.74
2018-08-30T04:43:51.638Z,1007.71
2018-08-30T04:44:51.631Z,1007.74
2018-08-30T04:45:51.627Z,1007.77
2018-08-30T04:46:51.603Z,1007.77
2018-08-30T04:47:51.598Z,1007.79
2018-08-30T04:48:51.593Z,1007.78
2018-08-30T04:49:51.571Z,1007.85
2018-08-30T04:50:51.571Z,1007.84
2018-08-30T04:51:51.553Z,1007.86
2018-08-30T04:52:51.536Z,1007.80
2018-08-30T04:53:51.538Z,1007.84
2018-08-30T04:54:51.516Z,1007.87
2018-08-30T04:55:51.516Z,1007.87
2018-08-30T04:56:51.562Z,1007.84
2018-08-30T04:57:51.484Z,1007.95
2018-08-30T04:58:51.473Z,1007.93
2018-08-30T04:59:51.458Z,1007.95
2018-08-30T05:00:51.458Z,1007.94
2018-08-30T05:01:51.474Z,1007.97
2018-08-30T05:02:51.428Z,1007.98
2018-08-30T05:03:51.416Z,1007.98
2018-08-30T05:04:51.405Z,1008.03
2018-08-30T05:05:51.432Z,1008.04
2018-08-30T05:06:51.396Z,1008.01
2018-08-30T05:07:51.374Z,1008.03
2018-08-30T05:08:51.358Z,1008.07
2018-08-30T05:09:51.398Z,1008.10
2018-08-30T05:10:51.356Z,1008.11
2018-08-30T05:11:51.339Z,1008.13
2018-08-30T05:12:51.314Z,1008.12
2018-08-30T05:13:51.310Z,1008.10
2018-08-30T05:14:51.295Z,1008.12
2018-08-30T05:15:51.296Z,1008.16
2018-08-30T05:16:51.273Z,1008.13
2018-08-30T05:17:51.264Z,1008.15
2018-08-30T05:18:51.249Z,1008.19
2018-08-30T05:19:51.255Z,1008.15
2018-08-30T05:20:51.238Z,1008.20
2018-08-30T05:21:51.215Z,1008.21
2018-08-30T05:22:51.214Z,1008.20
2018-08-30T05:23:51.194Z,1008.20
2018-08-30T05:24:51.184Z,1008.20
2018-08-30T05:25:51.191Z,1008.24
2018-08-30T05:26:51.157Z,1008.26
2018-08-30T05:27:51.152Z,1008.26
2018-08-30T05:28:51.146Z,1008.27
2018-08-30T05:29:51.141Z,1008.29
2018-08-30T05:30:51.129Z,1008.27
2018-08-30T05:31:51.101Z,1008.27
2018-08-30T05:32:51.100Z,1008.32
2018-08-30T05:33:51.083Z,1008.29
2018-08-30T05:34:51.074Z,1008.30
2018-08-30T05:35:51.142Z,1008.33
2018-08-30T05:36:51.048Z,1008.31
2018-08-30T05:37:51.039Z,1008.38
2018-08-30T05:38:51.031Z,1008.36
2018-08-30T05:39:51.015Z,1008.36
2018-08-30T05:40:51.007Z,1008.39
2018-08-30T05:41:51.005Z,1008.40
2018-08-30T05:42:51.002Z,1008.41
2018-08-30T05:43:50.973Z,1008.40
2018-08-30T05:44:50.961Z,1008.40
2018-08-30T05:45:50.950Z,1008.41
2018-08-30T05:46:50.951Z,1008.45
2018-08-30T05:47:50.937Z,1008.41
2018-08-30T05:48:50.923Z,1008.38
2018-08-30T05:49:50.906Z,1008.45
2018-08-30T05:50:50.902Z,1008.43
2018-08-30T05:51:50.896Z,1008.46
2018-08-30T05:52:50.872Z,1008.50
2018-08-30T05:53:50.869Z,1008.45
2018-08-30T05:54:50.850Z,1008.47
2018-08-30T05:55:50.845Z,1008.47
2018-08-30T05:56:50.880Z,1008.49
2018-08-30T05:57:50.817Z,1008.51
2018-08-30T05:58:50.815Z,1008.53
2018-08-30T05:59:50.798Z,1008.50
2018-08-30T06:00:50.783Z,1008.55
2018-08-30T06:01:50.785Z,1008.59
2018-08-30T06:02:50.760Z,1008.60
2018-08-30T06:03:50.749Z,1008.59
2018-08-30T06:04:50.743Z,1008.69
2018-08-30T06:05:50.758Z,1008.67
2018-08-30T06:06:50.726Z,1008.67
2018-08-30T06:07:50.705Z,1008.71
2018-08-30T06:08:50.692Z,1008.70
2018-08-30T06:09:50.686Z,1008.72
2018-08-30T06:10:50.670Z,1008.70
2018-08-30T06:11:50.675Z,1008.72
2018-08-30T06:12:50.649Z,1008.69
2018-08-30T06:13:50.645Z,1008.69
2018-08-30T06:14:50.629Z,1008.73
2018-08-30T06:15:50.619Z,1008.77
2018-08-30T06:16:50.625Z,1008.77
2018-08-30T06:17:50.602Z,1008.81
2018-08-30T06:18:50.589Z,1008.77
2018-08-30T06:19:50.574Z,1008.81
2018-08-30T06:20:50.572Z,1008.81
2018-08-30T06:21:50.572Z,1008.82
2018-08-30T06:22:50.538Z,1008.87
2018-08-30T06:23:50.547Z,1008.85
2018-08-30T06:24:50.527Z,1008.86
2018-08-30T06:25:50.511Z,1008.86
2018-08-30T06:26:50.595Z,1008.85
2018-08-30T06:27:50.483Z,1008.87
2018-08-30T06:28:50.494Z,1008.90
2018-08-30T06:29:50.461Z,1008.89
2018-08-30T06:30:50.450Z,1008.94
2018-08-30T06:31:50.466Z,1008.91
2018-08-30T06:32:50.517Z,1008.95
2018-08-30T06:33:50.417Z,1008.96
2018-08-30T06:34:50.448Z,1008.93
2018-08-30T06:35:50.392Z,1008.97
2018-08-30T06:36:50.394Z,1008.96
2018-08-30T06:37:50.375Z,1009.01
2018-08-30T06:38:50.421Z,1009.05
2018-08-30T06:39:50.355Z,1009.05
2018-08-30T06:40:50.348Z,1009.03
2018-08-30T06:41:50.356Z,1009.02
2018-08-30T06:42:50.320Z,1009.04
2018-08-30T06:43:50.307Z,1009.05
2018-08-30T06:44:50.297Z,1009.10
2018-08-30T06:45:50.292Z,1009.10
2018-08-30T06:46:50.310Z,1009.09
2018-08-30T06:47:50.269Z,1009.09
2018-08-30T06:48:50.276Z,1009.11
2018-08-30T06:49:50.249Z,1009.08
2018-08-30T06:50:50.245Z,1009.13
2018-08-30T06:51:50.239Z,1009.15
2018-08-30T06:52:50.225Z,1009.18
2018-08-30T06:53:50.197Z,1009.15
2018-08-30T06:54:50.190Z,1009.15
2018-08-30T06:55:50.175Z,1009.18
2018-08-30T06:56:50.165Z,1009.17
2018-08-30T06:57:50.165Z,1009.13
2018-08-30T06:58:50.180Z,1009.18
2018-08-30T06:59:50.137Z,1009.16
2018-08-30T07:00:50.122Z,1009.19
2018-08-30T07:01:50.121Z,1009.15
2018-08-30T07:02:50.112Z,1009.15
2018-08-30T07:03:50.092Z,1009.12
2018-08-30T07:04:50.081Z,1009.13
2018-08-30T07:05:50.073Z,1009.14
2018-08-30T07:06:50.062Z,1009.15
2018-08-30T07:07:50.059Z,1009.19
2018-08-30T07:08:50.035Z,1009.21
2018-08-30T07:09:50.024Z,1009.22
2018-08-30T07:10:50.011Z,1009.24
2018-08-30T07:11:50.002Z,1009.20
2018-08-30T07:12:49.999Z,1009.24
2018-08-30T07:13:49.976Z,1009.21
2018-08-30T07:14:50.025Z,1009.25
2018-08-30T07:15:49.954Z,1009.28
2018-08-30T07:16:49.986Z,1009.25
2018-08-30T07:17:50.001Z,1009.22
2018-08-30T07:18:49.936Z,1009.27
2018-08-30T07:19:49.911Z,1009.26
2018-08-30T07:20:49.898Z,1009.27
2018-08-30T07:21:49.897Z,1009.29
2018-08-30T07:22:49.890Z,1009.26
2018-08-30T07:23:49.884Z,1009.24
2018-08-30T07:24:49.856Z,1009.31
2018-08-30T07:25:49.843Z,1009.32
2018-08-30T07:26:49.827Z,1009.36
2018-08-30T07:27:49.852Z,1009.33
2018-08-30T07:28:49.806Z,1009.31
2018-08-30T07:29:49.797Z,1009.35
2018-08-30T07:30:49.786Z,1009.36
2018-08-30T07:31:49.777Z,1009.34
2018-08-30T07:32:49.774Z,1009.34
2018-08-30T07:33:49.757Z,1009.33
2018-08-30T07:34:49.867Z,1009.34
2018-08-30T07:35:49.729Z,1009.38
2018-08-30T07:36:49.717Z,1009.38
2018-08-30T07:37:49.736Z,1009.42
2018-08-30T07:38:49.705Z,1009.40
2018-08-30T07:39:49.691Z,1009.42
2018-08-30T07:40:49.677Z,1009.46
2018-08-30T07:41:49.666Z,1009.45
2018-08-30T07:42:49.662Z,1009.46
2018-08-30T07:43:49.645Z,1009.48
2018-08-30T07:44:49.638Z,1009.52
2018-08-30T07:45:49.629Z,1009.53
2018-08-30T07:46:49.609Z,1009.54
2018-08-30T07:47:49.608Z,1009.53
2018-08-30T07:48:49.585Z,1009.59
2018-08-30T07:49:49.573Z,1009.56
2018-08-30T07:50:49.580Z,1009.60
2018-08-30T07:51:49.562Z,1009.60
2018-08-30T07:52:49.550Z,1009.57
2018-08-30T07:53:49.529Z,1009.62
2018-08-30T07:54:49.520Z,1009.62
2018-08-30T07:55:49.503Z,1009.62
2018-08-30T07:56:49.493Z,1009.63
2018-08-30T07:57:49.504Z,1009.64
2018-08-30T07:58:49.469Z,1009.65
2018-08-30T07:59:49.488Z,1009.70
2018-08-30T08:00:49.477Z,1009.67
2018-08-30T08:01:49.457Z,1009.66
2018-08-30T08:02:49.435Z,1009.69
2018-08-30T08:03:49.437Z,1009.74
2018-08-30T08:04:49.402Z,1009.70
2018-08-30T08:05:49.406Z,1009.72
2018-08-30T08:06:49.396Z,1009.74
2018-08-30T08:07:49.412Z,1009.78
2018-08-30T08:08:49.398Z,1009.78
2018-08-30T08:09:49.346Z,1009.74
2018-08-30T08:10:49.342Z,1009.75
2018-08-30T08:11:49.379Z,1009.81
2018-08-30T08:12:49.457Z,1009.83
2018-08-30T08:13:49.343Z,1009.80
2018-08-30T08:14:49.299Z,1009.82
2018-08-30T08:15:49.282Z,1009.80
2018-08-30T08:16:49.273Z,1009.83
2018-08-30T08:17:49.263Z,1009.86
2018-08-30T08:18:49.259Z,1009.86
2018-08-30T08:19:49.250Z,1009.86
2018-08-30T08:20:49.232Z,1009.91
2018-08-30T08:21:49.215Z,1009.91
2018-08-30T08:22:49.231Z,1009.93
2018-08-30T08:23:49.221Z,1009.96
2018-08-30T08:24:49.209Z,1009.93
2018-08-30T08:25:49.173Z,1009.95
2018-08-30T08:26:49.155Z,1009.92
2018-08-30T08:27:49.144Z,1009.97
2018-08-30T08:28:49.143Z,1010.03
2018-08-30T08:29:49.122Z,1009.99
2018-08-30T08:30:49.111Z,1010.01
2018-08-30T08:31:49.105Z,1010.03
2018-08-30T08:32:49.092Z,1010.06
2018-08-30T08:33:49.088Z,1010.10
2018-08-30T08:34:49.064Z,1010.03
2018-08-30T08:35:49.055Z,1010.10
2018-08-30T08:36:49.065Z,1010.06
2018-08-30T08:37:49.034Z,1010.08
2018-08-30T08:38:49.177Z,1010.09
2018-08-30T08:39:49.066Z,1010.13
2018-08-30T08:40:48.997Z,1010.13
2018-08-30T08:41:48.991Z,1010.14
2018-08-30T08:42:48.979Z,1010.15
2018-08-30T08:43:48.973Z,1010.16
2018-08-30T08:44:48.951Z,1010.20
2018-08-30T08:45:48.950Z,1010.25
2018-08-30T08:46:48.928Z,1010.28
2018-08-30T08:47:49.027Z,1010.28
2018-08-30T08:48:48.916Z,1010.26
2018-08-30T08:49:48.910Z,1010.24
2018-08-30T08:50:48.891Z,1010.23
2018-08-30T08:51:48.873Z,1010.24
2018-08-30T08:52:48.861Z,1010.24
2018-08-30T08:53:48.969Z,1010.30
2018-08-30T08:54:48.838Z,1010.25
2018-08-30T08:55:48.832Z,1010.24
2018-08-30T08:56:48.828Z,1010.24
2018-08-30T08:57:48.806Z,1010.29
2018-08-30T08:58:48.879Z,1010.26
2018-08-30T08:59:48.792Z,1010.26
2018-08-30T09:00:48.774Z,1010.29
2018-08-30T09:01:48.761Z,1010.28
2018-08-30T09:02:48.750Z,1010.30
2018-08-30T09:03:48.771Z,1010.30
2018-08-30T09:04:48.747Z,1010.24
2018-08-30T09:05:48.717Z,1010.33
2018-08-30T09:06:48.711Z,1010.29
2018-08-30T09:07:48.765Z,1010.29
2018-08-30T09:08:48.702Z,1010.30
2018-08-30T09:09:48.708Z,1010.33
2018-08-30T09:10:48.669Z,1010.33
2018-08-30T09:11:48.650Z,1010.29
2018-08-30T09:12:48.645Z,1010.31
2018-08-30T09:13:48.652Z,1010.29
2018-08-30T09:14:48.625Z,1010.32
2018-08-30T09:15:48.611Z,1010.32
2018-08-30T09:16:48.596Z,1010.31
2018-08-30T09:17:48.591Z,1010.30
2018-08-30T09:18:48.594Z,1010.25
2018-08-30T09:19:48.565Z,1010.30
2018-08-30T09:20:48.550Z,1010.29
2018-08-30T09:21:48.544Z,1010.30
2018-08-30T09:22:48.552Z,1010.31
2018-08-30T09:23:48.529Z,1010.33
2018-08-30T09:24:48.534Z,1010.26
2018-08-30T09:25:48.496Z,1010.29
2018-08-30T09:26:48.525Z,1010.28
2018-08-30T09:27:48.474Z,1010.26
2018-08-30T09:28:48.473Z,1010.22
2018-08-30T09:29:48.451Z,1010.25
2018-08-30T09:30:48.458Z,1010.27
2018-08-30T09:31:48.433Z,1010.30
2018-08-30T09:32:48.449Z,1010.27
2018-08-30T09:33:48.482Z,1010.27
2018-08-30T09:34:48.409Z,1010.33
2018-08-30T09:35:48.385Z,1010.28
2018-08-30T09:36:48.388Z,1010.31
2018-08-30T09:37:48.364Z,1010.33
2018-08-30T09:38:48.364Z,1010.28
2018-08-30T09:39:48.345Z,1010.32
2018-08-30T09:40:48.333Z,1010.28
2018-08-30T09:41:48.320Z,1010.33
2018-08-30T09:42:48.309Z,1010.35
2018-08-30T09:43:48.348Z,1010.35
2018-08-30T09:44:48.350Z,1010.37
2018-08-30T09:45:48.306Z,1010.29
2018-08-30T09:46:48.262Z,1010.34
2018-08-30T09:47:48.268Z,1010.34
2018-08-30T09:48:48.274Z,1010.40
2018-08-30T09:49:48.264Z,1010.41
2018-08-30T09:50:48.218Z,1010.37
2018-08-30T09:51:48.215Z,1010.41
2018-08-30T09:52:48.236Z,1010.37
2018-08-30T09:53:48.188Z,1010.40
2018-08-30T09:54:48.190Z,1010.41
2018-08-30T09:55:48.284Z,1010.41
2018-08-30T09:56:48.207Z,1010.45
2018-08-30T09:57:48.142Z,1010.42
2018-08-30T09:58:48.139Z,1010.40
2018-08-30T09:59:48.137Z,1010.42
2018-08-30T10:00:48.108Z,1010.54
2018-08-30T10:01:48.121Z,1010.47
2018-08-30T10:02:48.085Z,1010.38
2018-08-30T10:03:48.137Z,1010.40
2018-08-30T10:04:48.109Z,1010.43
2018-08-30T10:05:48.049Z,1010.45
2018-08-30T10:06:48.050Z,1010.48
2018-08-30T10:07:48.047Z,1010.43
2018-08-30T10:08:48.038Z,1010.42
2018-08-30T10:09:48.019Z,1010.45
2018-08-30T10:10:48.029Z,1010.46
2018-08-30T10:11:47.981Z,1010.44
2018-08-30T10:12:47.970Z,1010.47
2018-08-30T10:13:47.963Z,1010.46
2018-08-30T10:14:47.959Z,1010.43
2018-08-30T10:15:47.980Z,1010.48
2018-08-30T10:16:47.927Z,1010.40
2018-08-30T10:17:47.914Z,1010.48
2018-08-30T10:18:47.905Z,1010.45
2018-08-30T10:19:47.903Z,1010.53
2018-08-30T10:20:47.881Z,1010.51
2018-08-30T10:21:47.872Z,1010.43
2018-08-30T10:22:47.855Z,1010.41
2018-08-30T10:23:47.845Z,1010.51
2018-08-30T10:24:47.846Z,1010.49
2018-08-30T10:25:47.823Z,1010.43
2018-08-30T10:26:47.824Z,1010.46
2018-08-30T10:27:47.804Z,1010.50
2018-08-30T10:28:47.789Z,1010.42
2018-08-30T10:29:47.789Z,1010.43
2018-08-30T10:30:47.771Z,1010.45
2018-08-30T10:31:47.773Z,1010.47
2018-08-30T10:32:47.742Z,1010.49
2018-08-30T10:33:47.750Z,1010.48
2018-08-30T10:34:47.730Z,1010.50
2018-08-30T10:35:47.714Z,1010.43
2018-08-30T10:36:47.698Z,1010.52
2018-08-30T10:37:47.690Z,1010.52
2018-08-30T10:38:47.676Z,1010.52
2018-08-30T10:39:47.706Z,1010.56
2018-08-30T10:40:47.651Z,1010.60
2018-08-30T10:41:47.641Z,1010.58
2018-08-30T10:42:47.689Z,1010.62
2018-08-30T10:43:47.637Z,1010.67
2018-08-30T10:44:47.632Z,1010.70
2018-08-30T10:45:47.600Z,1010.65
2018-08-30T10:46:47.635Z,1010.65
2018-08-30T10:47:47.571Z,1010.66
2018-08-30T10:48:47.570Z,1010.70
2018-08-30T10:49:47.618Z,1010.74
2018-08-30T10:50:47.537Z,1010.71
2018-08-30T10:51:47.526Z,1010.71
2018-08-30T10:52:47.522Z,1010.63
2018-08-30T10:53:47.502Z,1010.66
2018-08-30T10:54:47.523Z,1010.63
2018-08-30T10:55:47.482Z,1010.62
2018-08-30T10:56:47.488Z,1010.56
2018-08-30T10:57:47.459Z,1010.65
2018-08-30T10:58:47.450Z,1010.64
2018-08-30T10:59:47.446Z,1010.58
2018-08-30T11:00:47.422Z,1010.65
2018-08-30T11:01:47.434Z,1010.68
2018-08-30T11:02:47.399Z,1010.61
2018-08-30T11:03:47.393Z,1010.67
2018-08-30T11:04:47.442Z,1010.70
2018-08-30T11:05:47.366Z,1010.72
2018-08-30T11:06:47.374Z,1010.63
2018-08-30T11:07:47.353Z,1010.66
2018-08-30T11:08:47.331Z,1010.70
2018-08-30T11:09:47.358Z,1010.65
2018-08-30T11:10:47.333Z,1010.62
2018-08-30T11:11:47.299Z,1010.68
2018-08-30T11:12:47.314Z,1010.65
2018-08-30T11:13:47.277Z,1010.68
2018-08-30T11:14:47.282Z,1010.65
2018-08-30T11:15:47.267Z,1010.60
2018-08-30T11:16:47.250Z,1010.64
2018-08-30T11:17:47.254Z,1010.57
2018-08-30T11:18:47.226Z,1010.60
2018-08-30T11:19:47.237Z,1010.60
2018-08-30T11:20:47.210Z,1010.60
2018-08-30T11:21:47.185Z,1010.59
2018-08-30T11:22:47.173Z,1010.59
2018-08-30T11:23:47.166Z,1010.67
2018-08-30T11:24:47.168Z,1010.63
2018-08-30T11:25:47.200Z,1010.68
2018-08-30T11:26:47.128Z,1010.64
2018-08-30T11:27:47.128Z,1010.63
2018-08-30T11:28:47.106Z,1010.59
2018-08-30T11:29:47.094Z,1010.57
2018-08-30T11:30:47.127Z,1010.59
2018-08-30T11:31:47.072Z,1010.60
2018-08-30T11:32:47.061Z,1010.69
2018-08-30T11:33:47.051Z,1010.60
2018-08-30T11:34:47.040Z,1010.58
2018-08-30T11:35:47.044Z,1010.62
2018-08-30T11:36:47.021Z,1010.62
2018-08-30T11:37:47.180Z,1010.60
2018-08-30T11:38:46.994Z,1010.58
2018-08-30T11:39:46.988Z,1010.58
2018-08-30T11:40:47.015Z,1010.59
2018-08-30T11:41:47.017Z,1010.56
2018-08-30T11:42:46.968Z,1010.56
2018-08-30T11:43:46.939Z,1010.58
2018-08-30T11:44:46.931Z,1010.58
2018-08-30T11:45:46.932Z,1010.53
2018-08-30T11:46:46.906Z,1010.53
2018-08-30T11:47:46.895Z,1010.54
2018-08-30T11:48:46.900Z,1010.56
2018-08-30T11:49:46.873Z,1010.57
2018-08-30T11:50:46.875Z,1010.55
2018-08-30T11:51:46.850Z,1010.61
2018-08-30T11:52:46.907Z,1010.55
2018-08-30T11:53:46.839Z,1010.58
2018-08-30T11:54:46.819Z,1010.61
2018-08-30T11:55:46.827Z,1010.62
2018-08-30T11:56:46.795Z,1010.67
2018-08-30T11:57:46.783Z,1010.59
2018-08-30T11:58:46.774Z,1010.67
2018-08-30T11:59:46.761Z,1010.63
2018-08-30T12:00:46.814Z,1010.70
2018-08-30T12:01:46.742Z,1010.69
2018-08-30T12:02:46.732Z,1010.71
2018-08-30T12:03:46.749Z,1010.68
2018-08-30T12:04:46.760Z,1010.67
2018-08-30T12:05:46.707Z,1010.71